Time;durP1;ratioP1;P1;durP2;ratioP2;P2;SDS_P1;SDS_P2;PMS_P1;PMS_P2;Temp;Humidity;BMP_temperature;BMP_pressure;BME280_temperature;BME280_humidity;BME280_pressure;Samples;Min_cycle;Max_cycle;Signal;HPM_P1;HPM_P2
2022/08/13 00:01:24;;;;;;;6.03;4.73;;;15.00;69.70;;;;;;5014950;28;20809;-65
2022/08/13 00:03:55;;;;;;;8.40;3.47;;;14.90;71.10;;;;;;5014887;28;20442;-65
2022/08/13 00:06:57;;;;;;;3.90;2.83;;;14.90;71.60;;;;;;5014361;28;20439;-65
2022/08/13 00:09:16;;;;;;;3.73;3.03;;;14.90;71.30;;;;;;5014301;28;20485;-66
2022/08/13 00:14:34;;;;;;;5.60;2.80;;;14.70;71.60;;;;;;5014746;28;20426;-67
2022/08/13 00:17:03;;;;;;;5.60;3.50;;;14.70;71.80;;;;;;5014393;28;20478;-66
2022/08/13 00:19:30;;;;;;;6.20;3.60;;;14.70;72.60;;;;;;5014310;28;20431;-66
2022/08/13 00:21:59;;;;;;;7.57;3.00;;;14.60;72.40;;;;;;5014126;28;20442;-65
2022/08/13 00:24:29;;;;;;;3.37;2.70;;;14.70;72.10;;;;;;5014806;28;20787;-65
2022/08/13 00:26:59;;;;;;;4.23;3.30;;;14.60;72.20;;;;;;5013950;28;20446;-66
2022/08/13 00:29:27;;;;;;;6.87;2.87;;;14.60;72.50;;;;;;5014525;28;20522;-67
2022/08/13 00:31:54;;;;;;;6.97;3.10;;;14.60;72.80;;;;;;5013888;28;20443;-65
2022/08/13 00:34:22;;;;;;;3.87;3.10;;;14.50;73.30;;;;;;5013902;28;20439;-66
2022/08/13 00:36:49;;;;;;;4.40;3.10;;;14.50;73.30;;;;;;5014031;28;20435;-65
2022/08/13 00:39:17;;;;;;;4.87;3.77;;;14.50;73.00;;;;;;5013344;28;20447;-66
2022/08/13 00:41:47;;;;;;;3.97;2.87;;;14.40;73.30;;;;;;5014133;28;20494;-66
2022/08/13 00:44:16;;;;;;;9.10;2.77;;;14.40;73.50;;;;;;5013753;28;20467;-66
2022/08/13 00:48:41;;;;;;;4.00;3.07;;;14.40;73.70;;;;;;5013828;28;20558;-66
2022/08/13 00:49:35;;;;;;;4.30;2.97;;;14.30;73.30;;;;;;5013484;28;20520;-66
2022/08/13 00:52:04;;;;;;;5.73;3.60;;;14.20;74.10;;;;;;5014214;28;20474;-66
2022/08/13 00:54:35;;;;;;;4.23;3.80;;;14.00;74.60;;;;;;5013444;28;20434;-65
2022/08/13 00:57:07;;;;;;;4.00;3.60;;;13.90;75.40;;;;;;5013827;28;20443;-66
2022/08/13 00:59:34;;;;;;;4.73;3.60;;;13.80;75.20;;;;;;5013502;28;20453;-66
2022/08/13 01:02:04;;;;;;;7.57;3.60;;;13.70;75.70;;;;;;5014116;28;20439;-67
2022/08/13 01:04:32;;;;;;;4.70;3.77;;;13.70;75.80;;;;;;5013322;28;20443;-66
2022/08/13 01:07:01;;;;;;;4.83;3.00;;;13.70;75.80;;;;;;5013905;28;20439;-65
2022/08/13 01:09:30;;;;;;;4.17;3.23;;;13.70;76.80;;;;;;5012542;28;20478;-67
2022/08/13 01:12:00;;;;;;;3.70;3.00;;;13.70;77.50;;;;;;5013562;28;20932;-67
2022/08/13 01:14:32;;;;;;;6.77;5.33;;;13.70;77.40;;;;;;5013234;28;20442;-66
2022/08/13 01:17:02;;;;;;;3.60;3.13;;;13.60;77.50;;;;;;5013159;28;20446;-66
2022/08/13 01:19:31;;;;;;;4.17;3.77;;;13.70;78.00;;;;;;5013238;28;20505;-66
2022/08/13 01:22:00;;;;;;;3.30;2.80;;;13.70;78.30;;;;;;5013256;28;20462;-66
2022/08/13 01:24:30;;;;;;;3.70;2.80;;;13.80;78.40;;;;;;5012864;28;20454;-66
2022/08/13 01:26:58;;;;;;;3.90;3.20;;;13.90;78.30;;;;;;5013329;28;20497;-66
2022/08/13 01:29:26;;;;;;;5.20;4.13;;;13.90;77.50;;;;;;5012747;28;20915;-66
2022/08/13 01:31:55;;;;;;;6.77;5.17;;;13.80;77.20;;;;;;5013391;28;20434;-66
2022/08/13 01:34:23;;;;;;;4.83;3.60;;;13.80;77.20;;;;;;5012194;28;20450;-66
2022/08/13 01:36:53;;;;;;;4.60;3.70;;;13.70;76.70;;;;;;5012663;28;20447;-66
2022/08/13 01:39:22;;;;;;;5.03;3.63;;;13.70;77.00;;;;;;5012676;28;20434;-66
2022/08/13 01:41:55;;;;;;;7.30;4.00;;;13.60;77.40;;;;;;5013017;28;20442;-65
2022/08/13 01:44:25;;;;;;;6.90;3.20;;;13.70;78.00;;;;;;5012586;28;20489;-66
2022/08/13 01:52:34;;;;;;;4.00;3.13;;;13.80;78.50;;;;;;5013023;28;20454;-67
2022/08/13 01:55:06;;;;;;;4.13;3.20;;;13.80;78.20;;;;;;5011411;28;20508;-66
2022/08/13 01:57:35;;;;;;;5.20;3.10;;;13.80;77.50;;;;;;5012824;28;20829;-66
2022/08/13 02:00:07;;;;;;;4.17;2.50;;;13.70;77.40;;;;;;5012978;28;20451;-65
2022/08/13 02:02:34;;;;;;;3.60;2.73;;;13.70;77.40;;;;;;5012604;28;20845;-66
2022/08/13 02:05:02;;;;;;;6.57;4.00;;;13.60;77.60;;;;;;5012857;28;20501;-66
2022/08/13 02:07:32;;;;;;;6.60;4.10;;;13.50;78.30;;;;;;5012711;28;20805;-66
2022/08/13 02:10:00;;;;;;;4.30;2.90;;;13.50;79.00;;;;;;5011965;28;20485;-66
2022/08/13 02:12:29;;;;;;;6.03;3.57;;;13.40;79.20;;;;;;5012129;28;20451;-66
2022/08/13 02:14:58;;;;;;;4.40;3.57;;;13.40;79.70;;;;;;5012466;28;20445;-67
2022/08/13 02:17:27;;;;;;;6.23;4.77;;;13.30;79.30;;;;;;5012141;28;20442;-66
2022/08/13 02:19:56;;;;;;;5.10;3.47;;;13.30;79.00;;;;;;5012638;28;20446;-66
2022/08/13 02:22:24;;;;;;;5.50;3.57;;;13.30;79.50;;;;;;5012364;28;20447;-66
2022/08/13 02:24:53;;;;;;;5.10;3.63;;;13.20;79.80;;;;;;5012125;28;20435;-65
2022/08/13 02:27:22;;;;;;;5.93;4.63;;;13.10;80.50;;;;;;5012007;28;20849;-66
2022/08/13 02:29:59;;;;;;;4.38;3.53;;;13.20;80.60;;;;;;5011932;28;20833;-71
2022/08/13 02:32:27;;;;;;;6.20;3.40;;;13.10;80.20;;;;;;4992442;28;20290;-65
2022/08/13 02:34:54;;;;;;;5.73;3.10;;;13.10;80.60;;;;;;4992917;28;20581;-67
2022/08/13 02:37:23;;;;;;;4.65;3.40;;;13.20;80.70;;;;;;5012359;28;20443;-65
2022/08/13 02:39:50;;;;;;;4.70;3.20;;;13.20;80.60;;;;;;5012396;28;20196;-65
2022/08/13 02:42:23;;;;;;;8.13;3.10;;;13.30;80.50;;;;;;5012083;28;20489;-64
2022/08/13 02:44:52;;;;;;;5.60;3.30;;;13.30;79.20;;;;;;5012068;28;20493;-65
2022/08/13 02:47:21;;;;;;;3.38;3.08;;;13.20;78.60;;;;;;5011902;28;20478;-65
2022/08/13 02:49:51;;;;;;;3.90;3.00;;;13.20;78.90;;;;;;5012228;28;20277;-65
2022/08/13 02:52:20;;;;;;;5.83;3.63;;;13.10;79.40;;;;;;5011673;28;20443;-66
2022/08/13 02:54:48;;;;;;;4.30;3.07;;;13.10;80.00;;;;;;5012035;28;20493;-65
2022/08/13 02:57:17;;;;;;;6.25;3.72;;;13.00;80.50;;;;;;5011590;28;20803;-65
2022/08/13 02:59:45;;;;;;;4.65;3.35;;;12.90;79.70;;;;;;5011895;28;20252;-66
2022/08/13 03:02:14;;;;;;;6.07;3.90;;;12.90;80.00;;;;;;5011811;28;20562;-65
2022/08/13 03:04:45;;;;;;;4.60;3.73;;;12.90;80.30;;;;;;5012024;28;20443;-65
2022/08/13 03:07:13;;;;;;;5.23;3.60;;;12.90;80.60;;;;;;5011690;28;20470;-65
2022/08/13 03:09:42;;;;;;;4.07;3.60;;;12.90;80.70;;;;;;5011784;28;20482;-65
2022/08/13 03:12:10;;;;;;;5.00;3.40;;;12.90;80.60;;;;;;5011496;28;20454;-65
2022/08/13 03:14:38;;;;;;;4.73;3.53;;;12.80;81.10;;;;;;5012196;28;20442;-65
2022/08/13 03:17:05;;;;;;;4.37;3.10;;;12.90;81.40;;;;;;5011545;28;20489;-66
2022/08/13 03:19:34;;;;;;;5.22;4.65;;;12.90;81.10;;;;;;5011841;28;20439;-65
2022/08/13 03:22:01;;;;;;;5.27;3.40;;;12.90;81.50;;;;;;5011521;28;20521;-65
2022/08/13 03:24:29;;;;;;;4.57;3.87;;;12.90;81.10;;;;;;5011790;28;20445;-65
2022/08/13 03:26:56;;;;;;;5.95;3.35;;;12.80;80.50;;;;;;5011491;28;20438;-65
2022/08/13 03:29:25;;;;;;;4.95;3.65;;;12.80;80.10;;;;;;5011684;28;20223;-65
2022/08/13 03:31:52;;;;;;;3.92;3.53;;;12.60;80.20;;;;;;5011462;28;20554;-65
2022/08/13 03:34:24;;;;;;;7.33;4.07;;;12.50;81.00;;;;;;5015361;28;20253;-65
2022/08/13 03:36:53;;;;;;;5.28;3.88;;;12.50;81.20;;;;;;5015043;28;20439;-65
2022/08/13 03:39:21;;;;;;;6.38;4.22;;;12.50;81.80;;;;;;5015217;28;20195;-65
2022/08/13 03:41:48;;;;;;;6.00;3.77;;;12.50;81.80;;;;;;5014774;28;20198;-65
2022/08/13 03:44:15;;;;;;;6.30;4.07;;;12.50;82.70;;;;;;5014939;28;20975;-65
2022/08/13 03:46:44;;;;;;;3.97;2.85;;;12.50;81.90;;;;;;5014383;28;20478;-65
2022/08/13 03:49:11;;;;;;;4.40;3.80;;;12.50;81.40;;;;;;5014825;28;20326;-65
2022/08/13 03:51:39;;;;;;;6.18;4.53;;;12.40;81.10;;;;;;5014531;28;20195;-65
2022/08/13 03:54:07;;;;;;;7.35;4.40;;;12.40;82.00;;;;;;5014944;28;20199;-65
2022/08/13 03:56:36;;;;;;;5.90;4.07;;;12.40;82.40;;;;;;5014524;28;20199;-65
2022/08/13 03:59:10;;;;;;;4.88;4.00;;;12.40;82.40;;;;;;5014861;28;20434;-65
2022/08/13 04:01:37;;;;;;;6.68;4.47;;;12.40;83.10;;;;;;5014500;28;20196;-65
2022/08/13 04:04:06;;;;;;;8.32;4.40;;;12.40;83.10;;;;;;5015123;28;20195;-65
2022/08/13 04:06:34;;;;;;;4.00;3.38;;;12.40;83.30;;;;;;5014772;28;20188;-65
2022/08/13 04:09:03;;;;;;;3.72;3.38;;;12.40;83.50;;;;;;5014859;28;20219;-66
2022/08/13 04:11:37;;;;;;;5.35;3.55;;;12.40;83.20;;;;;;5014703;28;20220;-65
2022/08/13 04:14:05;;;;;;;4.00;3.15;;;12.40;83.00;;;;;;5014953;28;20199;-65
2022/08/13 04:16:32;;;;;;;5.18;3.42;;;12.30;82.90;;;;;;5014533;28;20188;-65
2022/08/13 04:19:01;;;;;;;4.32;3.50;;;12.30;83.60;;;;;;5014906;28;20191;-65
2022/08/13 04:21:31;;;;;;;3.85;3.00;;;12.30;83.50;;;;;;5014155;28;20642;-67
2022/08/13 04:24:05;;;;;;;5.25;3.17;;;12.30;82.90;;;;;;5014675;28;20199;-66
2022/08/13 04:26:33;;;;;;;4.80;3.28;;;12.30;83.40;;;;;;5014332;28;20188;-66
2022/08/13 04:29:09;;;;;;;4.10;3.35;;;12.40;83.60;;;;;;5014743;28;20223;-65
2022/08/13 04:31:37;;;;;;;5.28;3.33;;;12.40;83.90;;;;;;5014109;28;20192;-66
2022/08/13 04:34:05;;;;;;;4.32;3.40;;;12.40;83.30;;;;;;5014668;28;20223;-65
2022/08/13 04:36:32;;;;;;;3.92;3.53;;;12.30;82.80;;;;;;5013952;28;20204;-65
2022/08/13 04:38:59;;;;;;;4.63;3.47;;;12.20;83.30;;;;;;5014465;28;20199;-65
2022/08/13 04:41:27;;;;;;;3.90;3.50;;;12.20;83.70;;;;;;5014144;28;20495;-65
2022/08/13 04:43:54;;;;;;;5.15;3.45;;;12.20;83.60;;;;;;5013452;28;20438;-65
2022/08/13 04:46:23;;;;;;;4.95;3.70;;;12.30;84.30;;;;;;5013368;28;20270;-65
2022/08/13 04:48:50;;;;;;;4.05;3.63;;;12.20;84.30;;;;;;5014331;28;20191;-65
2022/08/13 04:51:17;;;;;;;4.93;3.53;;;12.20;84.50;;;;;;5013439;28;20203;-65
2022/08/13 04:53:44;;;;;;;6.40;3.78;;;12.20;84.40;;;;;;5014140;28;20192;-67
2022/08/13 04:56:12;;;;;;;5.18;3.90;;;12.20;84.40;;;;;;5013633;28;20188;-65
2022/08/13 04:58:39;;;;;;;5.03;3.55;;;12.30;84.80;;;;;;5014465;28;20286;-65
2022/08/13 05:01:09;;;;;;;4.85;3.85;;;12.30;84.50;;;;;;5013700;28;20199;-65
2022/08/13 05:03:38;;;;;;;4.00;3.58;;;12.40;84.30;;;;;;5013960;28;20196;-65
2022/08/13 05:06:07;;;;;;;4.07;3.67;;;12.40;84.70;;;;;;5013534;28;20199;-65
2022/08/13 05:08:35;;;;;;;4.63;3.72;;;12.50;84.70;;;;;;5013837;28;20659;-65
2022/08/13 05:11:03;;;;;;;3.38;3.08;;;12.50;84.80;;;;;;5010698;28;20211;-65
2022/08/13 05:13:32;;;;;;;4.35;3.50;;;12.60;85.00;;;;;;5013208;28;20286;-65
2022/08/13 05:16:00;;;;;;;6.35;3.60;;;12.60;85.10;;;;;;5013044;28;20218;-65
2022/08/13 05:18:29;;;;;;;5.15;4.57;;;12.60;85.90;;;;;;5012986;28;20261;-65
2022/08/13 05:21:01;;;;;;;4.25;3.85;;;12.70;86.50;;;;;;5013268;28;20188;-65
2022/08/13 05:23:28;;;;;;;6.20;4.50;;;12.70;86.90;;;;;;5013760;28;20658;-66
2022/08/13 05:25:58;;;;;;;6.80;3.70;;;12.90;87.50;;;;;;5013177;28;20435;-65
2022/08/13 05:28:25;;;;;;;5.97;4.07;;;13.00;87.60;;;;;;5013741;28;20274;-65
2022/08/13 05:30:52;;;;;;;5.27;3.80;;;13.10;87.90;;;;;;5013099;28;20510;-65
2022/08/13 05:33:22;;;;;;;7.93;4.87;;;13.20;87.40;;;;;;5013267;28;20442;-67
2022/08/13 05:35:51;;;;;;;4.50;4.10;;;13.30;88.10;;;;;;5013036;28;20859;-65
2022/08/13 05:38:21;;;;;;;5.53;4.30;;;13.40;87.90;;;;;;5013382;28;20443;-65
2022/08/13 05:40:50;;;;;;;6.20;5.10;;;13.50;87.80;;;;;;5012505;28;20439;-66
2022/08/13 05:43:19;;;;;;;7.50;6.10;;;13.60;87.70;;;;;;5013052;28;20450;-65
2022/08/13 05:45:57;;;;;;;9.40;7.40;;;13.70;86.80;;;;;;5012690;28;20447;-65
2022/08/13 05:48:24;;;;;;;6.80;5.83;;;13.80;87.00;;;;;;5013571;28;20831;-66
2022/08/13 05:50:54;;;;;;;5.30;4.67;;;13.90;86.60;;;;;;5012248;28;20487;-65
2022/08/13 05:53:23;;;;;;;5.57;4.73;;;14.00;87.50;;;;;;5013090;28;20474;-65
2022/08/13 05:55:53;;;;;;;6.17;4.57;;;14.10;87.10;;;;;;5012149;28;20470;-65
2022/08/13 05:58:22;;;;;;;5.50;4.00;;;14.10;87.10;;;;;;5013046;28;20538;-65
2022/08/13 06:03:37;;;;;;;4.37;3.83;;;14.30;85.20;;;;;;5013080;28;20477;-65
2022/08/13 06:06:07;;;;;;;6.27;3.47;;;14.40;85.00;;;;;;5013260;28;20492;-65
2022/08/13 06:08:37;;;;;;;4.50;3.30;;;14.50;85.00;;;;;;5012468;28;20996;-65
2022/08/13 06:11:08;;;;;;;4.20;3.70;;;14.60;85.00;;;;;;5013030;28;20482;-64
2022/08/13 06:13:38;;;;;;;3.90;3.50;;;14.70;84.70;;;;;;5012676;28;20797;-65
2022/08/13 06:16:08;;;;;;;4.83;3.77;;;14.70;84.10;;;;;;5012828;28;20439;-66
2022/08/13 06:18:36;;;;;;;5.53;4.50;;;14.90;84.90;;;;;;5012564;28;20431;-65
2022/08/13 06:21:09;;;;;;;4.10;3.60;;;15.10;83.60;;;;;;5012903;28;20793;-65
2022/08/13 06:23:40;;;;;;;4.70;3.43;;;15.10;84.60;;;;;;5012653;28;20446;-64
2022/08/13 06:26:09;;;;;;;4.20;3.67;;;15.20;85.00;;;;;;5012951;28;20482;-65
2022/08/13 06:28:38;;;;;;;4.53;4.13;;;15.40;84.10;;;;;;5012164;28;20450;-65
2022/08/13 06:31:07;;;;;;;7.33;3.80;;;15.50;83.10;;;;;;5012694;28;20482;-64
2022/08/13 06:33:36;;;;;;;6.97;4.00;;;15.60;83.40;;;;;;5012377;28;20438;-65
2022/08/13 06:36:06;;;;;;;5.70;3.93;;;15.70;82.50;;;;;;5012908;28;20442;-65
2022/08/13 06:38:36;;;;;;;5.40;3.20;;;15.90;82.90;;;;;;5012452;28;20866;-65
2022/08/13 06:41:07;;;;;;;3.80;3.20;;;16.00;83.00;;;;;;5012574;28;20441;-66
2022/08/13 06:43:39;;;;;;;4.37;3.57;;;16.20;84.30;;;;;;5011910;28;20442;-65
2022/08/13 06:46:06;;;;;;;5.47;3.53;;;16.40;84.20;;;;;;5012494;28;20514;-66
2022/08/13 06:48:35;;;;;;;5.60;3.30;;;16.50;83.00;;;;;;5012345;28;20443;-65
2022/08/13 06:51:04;;;;;;;4.00;3.03;;;16.70;82.10;;;;;;5012496;28;20560;-65
2022/08/13 06:53:32;;;;;;;3.30;2.40;;;16.80;81.70;;;;;;5011943;28;20449;-65
2022/08/13 06:55:59;;;;;;;5.20;3.40;;;17.00;81.60;;;;;;5012565;28;20447;-69
2022/08/13 06:58:29;;;;;;;4.60;3.47;;;17.10;81.10;;;;;;5012423;28;20539;-65
2022/08/13 07:00:58;;;;;;;4.10;3.00;;;17.30;81.30;;;;;;5012800;28;20478;-65
2022/08/13 07:03:27;;;;;;;4.00;2.60;;;17.40;81.20;;;;;;5012345;28;20462;-65
2022/08/13 07:05:56;;;;;;;4.73;3.50;;;17.60;80.60;;;;;;5012358;28;20474;-65
2022/08/13 07:08:25;;;;;;;5.60;2.40;;;17.80;80.30;;;;;;5014830;28;20809;-65
2022/08/13 07:13:38;;;;;;;7.77;2.87;;;18.20;79.10;;;;;;5014022;28;20427;-65
2022/08/13 07:16:07;;;;;;;4.23;2.80;;;18.40;78.30;;;;;;5014015;28;20470;-65
2022/08/13 07:18:34;;;;;;;3.60;2.77;;;18.60;78.20;;;;;;5014147;28;20439;-69
2022/08/13 07:21:03;;;;;;;5.33;2.80;;;18.80;77.30;;;;;;5013530;28;20434;-66
2022/08/13 07:23:32;;;;;;;4.83;2.60;;;18.90;75.80;;;;;;5014499;28;21140;-66
2022/08/13 07:26:02;;;;;;;3.40;2.70;;;19.10;75.60;;;;;;5013745;28;20445;-66
2022/08/13 07:28:30;;;;;;;4.80;2.57;;;19.20;74.10;;;;;;5014014;28;20471;-66
2022/08/13 07:31:00;;;;;;;3.60;2.50;;;19.50;74.30;;;;;;5013790;28;20490;-67
2022/08/13 07:33:27;;;;;;;4.20;3.30;;;19.70;73.20;;;;;;5012734;28;20432;-66
2022/08/13 07:35:55;;;;;;;4.47;3.10;;;20.00;72.00;;;;;;5013845;28;20495;-69
2022/08/13 07:38:25;;;;;;;3.20;2.90;;;20.10;71.50;;;;;;5013785;28;20538;-65
2022/08/13 07:40:53;;;;;;;3.60;2.40;;;20.30;71.00;;;;;;5013866;28;20822;-65
2022/08/13 07:43:21;;;;;;;4.00;2.57;;;20.40;70.30;;;;;;5012852;28;20440;-67
2022/08/13 07:46:05;;;;;;;2.87;2.33;;;20.50;71.10;;;;;;5009297;28;20964;-66
2022/08/13 07:48:34;;;;;;;3.17;2.10;;;20.70;71.40;;;;;;5013047;28;20442;-68
2022/08/13 07:51:02;;;;;;;3.17;2.17;;;20.90;71.50;;;;;;5009505;28;20495;-67
2022/08/13 07:53:29;;;;;;;3.53;2.10;;;21.10;72.40;;;;;;5013649;28;20488;-66
2022/08/13 07:55:59;;;;;;;3.90;2.27;;;21.40;71.90;;;;;;5013954;28;20438;-66
2022/08/13 07:58:28;;;;;;;3.40;2.07;;;21.50;66.70;;;;;;5013236;28;20455;-66
2022/08/13 08:00:59;;;;;;;3.97;2.50;;;21.60;68.20;;;;;;5013201;28;20446;-66
2022/08/13 08:03:32;;;;;;;4.30;2.77;;;21.60;67.50;;;;;;5012271;28;20851;-66
2022/08/13 08:06:03;;;;;;;4.00;2.40;;;21.70;65.60;;;;;;5014029;28;20885;-65
2022/08/13 08:08:33;;;;;;;4.27;2.17;;;21.70;65.60;;;;;;5012843;28;20450;-66
2022/08/13 08:11:01;;;;;;;3.20;2.30;;;21.70;65.20;;;;;;5013660;28;21027;-67
2022/08/13 08:13:31;;;;;;;4.73;3.00;;;21.80;67.20;;;;;;5009750;28;20526;-66
2022/08/13 08:15:58;;;;;;;3.33;2.40;;;21.90;63.40;;;;;;5013734;28;20449;-68
2022/08/13 08:18:25;;;;;;;4.17;2.20;;;22.10;65.40;;;;;;5014068;28;20434;-66
2022/08/13 08:21:05;;;;;;;5.30;2.27;;;22.20;64.90;;;;;;5013361;28;20757;-66
2022/08/13 08:23:35;;;;;;;4.20;2.73;;;22.40;64.40;;;;;;5013711;28;20434;-67
2022/08/13 08:26:06;;;;;;;3.40;1.80;;;22.60;63.90;;;;;;5012376;28;20434;-66
2022/08/13 08:28:34;;;;;;;2.63;2.00;;;22.70;63.90;;;;;;5013338;28;20837;-66
2022/08/13 08:31:04;;;;;;;2.50;1.80;;;22.80;63.00;;;;;;5012890;28;20561;-66
2022/08/13 08:33:30;;;;;;;4.20;2.20;;;23.00;64.40;;;;;;5012788;28;20526;-66
2022/08/13 08:35:57;;;;;;;2.97;2.50;;;23.20;63.70;;;;;;5010567;28;20542;-66
2022/08/13 08:43:58;;;;;;;4.23;2.13;;;23.70;61.00;;;;;;5012074;28;20426;-66
2022/08/13 08:46:27;;;;;;;3.13;1.83;;;23.80;56.90;;;;;;5012728;28;20494;-66
2022/08/13 08:48:56;;;;;;;2.70;1.93;;;23.90;58.40;;;;;;5012480;28;20549;-66
2022/08/13 08:51:24;;;;;;;4.90;1.73;;;24.10;57.40;;;;;;5011341;28;20544;-66
2022/08/13 08:53:53;;;;;;;3.20;2.03;;;24.30;58.40;;;;;;5011709;28;20443;-66
2022/08/13 08:56:26;;;;;;;3.20;2.40;;;24.50;58.90;;;;;;5012530;28;20485;-66
2022/08/13 08:58:57;;;;;;;3.90;2.33;;;24.70;57.60;;;;;;5010600;28;20438;-66
2022/08/13 09:01:36;;;;;;;2.73;1.80;;;24.80;57.30;;;;;;5012437;28;20814;-67
2022/08/13 09:04:07;;;;;;;3.50;2.17;;;24.90;58.00;;;;;;4942902;28;20618;-74
2022/08/13 09:06:34;;;;;;;4.40;1.77;;;25.20;57.10;;;;;;4998658;28;20801;-66
2022/08/13 09:09:06;;;;;;;3.37;2.60;;;25.20;57.60;;;;;;4995312;28;20866;-66
2022/08/13 09:11:41;;;;;;;3.80;1.97;;;25.40;57.70;;;;;;5009774;28;20489;-66
2022/08/13 09:14:18;;;;;;;3.93;2.00;;;25.50;56.30;;;;;;5010544;28;20450;-67
2022/08/13 09:16:46;;;;;;;3.30;2.10;;;25.60;56.90;;;;;;5011924;28;20511;-65
2022/08/13 09:19:19;;;;;;;3.70;1.87;;;25.80;57.00;;;;;;5012077;28;20435;-67
2022/08/13 09:21:51;;;;;;;3.10;1.90;;;26.00;55.90;;;;;;5008427;28;20863;-72
2022/08/13 09:24:25;;;;;;;3.07;1.60;;;26.10;56.10;;;;;;5007523;28;20443;-66
2022/08/13 09:26:56;;;;;;;3.10;1.90;;;26.30;55.60;;;;;;5010923;28;20489;-65
2022/08/13 09:29:25;;;;;;;5.90;2.20;;;26.50;53.90;;;;;;5011395;28;20469;-66
2022/08/13 09:32:05;;;;;;;3.63;1.77;;;26.60;53.10;;;;;;5005965;28;21331;-65
2022/08/13 09:34:32;;;;;;;3.40;1.60;;;26.70;52.70;;;;;;5011057;28;20430;-67
2022/08/13 09:37:01;;;;;;;3.60;1.60;;;26.80;53.30;;;;;;5007951;28;20434;-65
2022/08/13 09:39:32;;;;;;;4.03;1.97;;;26.90;52.90;;;;;;5011482;28;20466;-65
2022/08/13 09:42:05;;;;;;;2.60;1.67;;;27.10;51.30;;;;;;5006003;28;20512;-66
2022/08/13 09:44:32;;;;;;;2.70;1.40;;;27.10;49.80;;;;;;5009876;28;20434;-67
2022/08/13 09:47:04;;;;;;;3.47;1.53;;;27.20;48.70;;;;;;5010512;28;20471;-65
2022/08/13 09:49:33;;;;;;;2.77;1.40;;;27.30;49.10;;;;;;5010539;28;20533;-67
2022/08/13 09:52:00;;;;;;;3.33;1.57;;;27.40;48.90;;;;;;5002370;28;21191;-66
2022/08/13 09:54:29;;;;;;;3.40;1.50;;;27.60;49.40;;;;;;5007900;28;20449;-66
2022/08/13 09:56:58;;;;;;;2.40;1.47;;;27.70;44.80;;;;;;5010783;28;20450;-65
2022/08/13 09:59:25;;;;;;;2.33;1.60;;;27.70;45.90;;;;;;5009770;28;20435;-65
2022/08/13 10:01:55;;;;;;;2.63;1.47;;;27.80;45.70;;;;;;5010608;28;20500;-66
2022/08/13 10:04:22;;;;;;;2.37;1.57;;;27.90;45.60;;;;;;5007497;28;20470;-70
2022/08/13 10:06:50;;;;;;;2.37;1.70;;;27.90;44.50;;;;;;5009729;28;20435;-67
2022/08/13 10:09:17;;;;;;;2.60;1.70;;;28.00;45.20;;;;;;5006069;28;20442;-66
2022/08/13 10:11:45;;;;;;;3.30;1.63;;;28.10;45.30;;;;;;5009194;28;20489;-66
2022/08/13 10:14:13;;;;;;;2.60;1.57;;;28.30;44.50;;;;;;5010210;28;20930;-66
2022/08/13 10:16:40;;;;;;;3.40;1.70;;;28.40;43.20;;;;;;5009152;28;20465;-67
2022/08/13 10:19:08;;;;;;;3.33;2.00;;;28.50;39.70;;;;;;5006104;28;20515;-68
2022/08/13 10:21:37;;;;;;;3.60;1.83;;;28.50;39.20;;;;;;5009459;28;20454;-66
2022/08/13 10:24:12;;;;;;;3.87;1.50;;;28.50;39.40;;;;;;5009872;28;20422;-66
2022/08/13 10:26:40;;;;;;;2.87;1.70;;;28.40;38.70;;;;;;5003439;28;20947;-66
2022/08/13 10:29:09;;;;;;;2.57;1.60;;;28.20;39.20;;;;;;5009495;28;20450;-67
2022/08/13 10:31:37;;;;;;;5.20;2.17;;;28.20;39.00;;;;;;5008016;28;20474;-68
2022/08/13 10:34:05;;;;;;;5.83;1.40;;;27.90;39.20;;;;;;5009828;28;20434;-67
2022/08/13 10:36:35;;;;;;;3.67;1.80;;;27.70;38.30;;;;;;5009180;28;20446;-66
2022/08/13 10:39:03;;;;;;;2.77;1.57;;;27.70;38.60;;;;;;5010229;28;20443;-67
2022/08/13 10:41:30;;;;;;;4.80;1.57;;;27.70;39.70;;;;;;5008940;28;20434;-65
2022/08/13 10:44:00;;;;;;;2.90;1.70;;;27.80;40.50;;;;;;5012717;28;20932;-66
2022/08/13 10:46:31;;;;;;;2.33;1.30;;;27.90;40.30;;;;;;5013181;28;20977;-66
2022/08/13 10:48:58;;;;;;;2.57;1.70;;;28.10;39.70;;;;;;5012891;28;20442;-67
2022/08/13 10:51:27;;;;;;;3.20;1.40;;;28.10;38.30;;;;;;5010771;28;20513;-66
2022/08/13 10:53:58;;;;;;;2.37;1.60;;;28.20;38.80;;;;;;5012422;28;20447;-66
2022/08/13 10:56:28;;;;;;;2.83;1.57;;;28.20;37.40;;;;;;5013449;28;20534;-67
2022/08/13 10:58:56;;;;;;;2.53;1.63;;;28.20;40.00;;;;;;5013105;28;20496;-67
2022/08/13 11:01:26;;;;;;;2.30;1.33;;;28.20;39.30;;;;;;5013113;28;20505;-66
2022/08/13 11:03:57;;;;;;;3.90;1.47;;;28.20;40.50;;;;;;5013016;28;20933;-67
2022/08/13 11:06:26;;;;;;;3.97;2.03;;;28.50;39.70;;;;;;5010203;28;20470;-66
2022/08/13 11:08:57;;;;;;;4.67;1.90;;;28.60;36.40;;;;;;5012740;28;20450;-66
2022/08/13 11:11:25;;;;;;;2.90;1.57;;;28.60;36.60;;;;;;5013477;28;20512;-67
2022/08/13 11:13:52;;;;;;;2.30;1.33;;;28.60;35.90;;;;;;5012816;28;20443;-68
2022/08/13 11:19:14;;;;;;;2.97;1.20;;;28.60;34.30;;;;;;5010160;28;20565;-66
2022/08/13 11:21:43;;;;;;;2.40;1.40;;;28.70;34.50;;;;;;5012796;28;20525;-66
2022/08/13 11:24:13;;;;;;;3.20;1.67;;;28.80;35.10;;;;;;5008876;28;20454;-66
2022/08/13 11:26:41;;;;;;;3.00;1.80;;;28.90;35.50;;;;;;5012830;28;20446;-69
2022/08/13 11:29:09;;;;;;;2.50;1.70;;;28.90;33.10;;;;;;5012885;28;20474;-69
2022/08/13 11:31:36;;;;;;;4.83;1.90;;;29.00;35.30;;;;;;5012120;28;20478;-68
2022/08/13 11:34:04;;;;;;;2.50;1.33;;;29.10;35.90;;;;;;5013207;28;20442;-68
2022/08/13 11:36:33;;;;;;;2.40;1.50;;;29.30;34.80;;;;;;5010289;28;20446;-66
2022/08/13 11:39:03;;;;;;;2.30;1.30;;;29.50;35.00;;;;;;5012442;28;20525;-68
2022/08/13 11:41:30;;;;;;;3.80;1.60;;;29.60;34.00;;;;;;5003465;28;20438;-69
2022/08/13 11:43:58;;;;;;;4.00;1.40;;;29.70;33.00;;;;;;5012387;28;20447;-66
2022/08/13 11:46:26;;;;;;;2.30;1.00;;;29.70;33.70;;;;;;5012231;28;20464;-66
2022/08/13 11:48:53;;;;;;;3.73;1.60;;;29.90;32.80;;;;;;5012336;28;20925;-66
2022/08/13 11:51:21;;;;;;;4.03;1.53;;;30.00;34.30;;;;;;5011915;28;20491;-66
2022/08/13 11:53:50;;;;;;;4.53;1.60;;;30.20;35.20;;;;;;5013486;28;20442;-66
2022/08/13 11:56:17;;;;;;;5.77;1.63;;;30.20;32.80;;;;;;5012346;28;20441;-68
2022/08/13 11:58:44;;;;;;;2.87;1.57;;;30.30;34.00;;;;;;5013600;28;20442;-67
2022/08/13 12:01:12;;;;;;;2.30;1.57;;;30.50;33.40;;;;;;5013251;28;20786;-66
2022/08/13 12:03:40;;;;;;;2.17;1.30;;;30.60;32.20;;;;;;5013611;28;20435;-66
2022/08/13 12:06:08;;;;;;;3.13;1.33;;;30.70;33.20;;;;;;5012898;28;20496;-69
2022/08/13 12:08:35;;;;;;;3.73;1.53;;;30.80;31.80;;;;;;5013656;28;20489;-67
2022/08/13 12:11:04;;;;;;;3.30;1.47;;;31.00;32.30;;;;;;5013145;28;20443;-66
2022/08/13 12:13:31;;;;;;;2.93;1.50;;;31.20;32.10;;;;;;5013170;28;20439;-66
2022/08/13 12:15:58;;;;;;;2.47;1.27;;;31.30;29.50;;;;;;5013015;28;20437;-67
2022/08/13 12:18:25;;;;;;;2.67;1.40;;;31.30;27.30;;;;;;5013181;28;20501;-67
2022/08/13 12:20:52;;;;;;;2.00;1.17;;;31.20;27.80;;;;;;5012995;28;20442;-66
2022/08/13 12:23:19;;;;;;;4.23;1.40;;;31.20;27.10;;;;;;5013221;28;20446;-66
2022/08/13 12:25:46;;;;;;;2.30;1.00;;;31.20;28.40;;;;;;5011711;28;20929;-66
2022/08/13 12:28:17;;;;;;;3.80;1.50;;;31.20;28.30;;;;;;5013253;28;20435;-66
2022/08/13 12:30:46;;;;;;;2.53;1.20;;;31.30;28.10;;;;;;5012696;28;20526;-66
2022/08/13 12:33:13;;;;;;;2.30;1.10;;;31.30;27.30;;;;;;5012798;28;20525;-66
2022/08/13 12:35:40;;;;;;;2.90;1.37;;;31.30;27.70;;;;;;5012466;28;20930;-66
2022/08/13 12:38:09;;;;;;;2.47;1.13;;;31.20;28.20;;;;;;5013409;28;20446;-66
2022/08/13 12:40:38;;;;;;;4.20;1.80;;;31.40;29.20;;;;;;5011792;28;20469;-66
2022/08/13 12:43:05;;;;;;;3.23;1.40;;;31.40;28.40;;;;;;5012916;28;20442;-66
2022/08/13 12:45:36;;;;;;;4.23;1.60;;;31.40;29.00;;;;;;5012348;28;20501;-66
2022/08/13 12:48:05;;;;;;;3.00;1.53;;;31.30;29.00;;;;;;5012967;28;20522;-67
2022/08/13 12:50:33;;;;;;;3.33;1.63;;;31.30;28.10;;;;;;5012199;28;20478;-66
2022/08/13 12:53:00;;;;;;;2.57;1.37;;;31.10;29.50;;;;;;5012586;28;20493;-67
2022/08/13 12:55:28;;;;;;;3.57;1.40;;;30.90;29.90;;;;;;5012148;28;20440;-66
2022/08/13 12:57:55;;;;;;;3.90;1.57;;;30.70;28.90;;;;;;5012590;28;20446;-67
2022/08/13 13:00:22;;;;;;;3.93;1.57;;;30.40;29.10;;;;;;5011268;28;20957;-66
2022/08/13 13:02:50;;;;;;;3.07;1.50;;;30.30;29.50;;;;;;5011679;28;20443;-66
2022/08/13 13:05:17;;;;;;;3.63;1.87;;;30.10;29.30;;;;;;5011456;28;20442;-73
2022/08/13 13:07:47;;;;;;;2.30;1.40;;;29.90;30.00;;;;;;5012308;28;20454;-67
2022/08/13 13:10:14;;;;;;;2.87;1.40;;;29.50;29.50;;;;;;5011714;28;20497;-66
2022/08/13 13:12:41;;;;;;;2.73;1.77;;;29.30;30.10;;;;;;5012252;28;20497;-66
2022/08/13 13:15:09;;;;;;;5.57;1.40;;;29.10;30.90;;;;;;5011056;28;20930;-66
2022/08/13 13:17:40;;;;;;;3.03;1.53;;;29.00;31.80;;;;;;5012162;28;20443;-66
2022/08/13 13:20:10;;;;;;;2.60;1.50;;;28.90;32.50;;;;;;5011272;28;20438;-66